sensor_id;sensor_type;location;lat;lon;timestamp;temperature;humidity
46416;DHT22;32620;51.704;7.822;2024-03-25T00:02:00;5.60;99.90
46416;DHT22;32620;51.704;7.822;2024-03-25T00:04:26;5.50;99.90
46416;DHT22;32620;51.704;7.822;2024-03-25T00:06:51;5.50;99.90
46416;DHT22;32620;51.704;7.822;2024-03-25T00:09:18;5.50;99.90
46416;DHT22;32620;51.704;7.822;2024-03-25T00:11:43;5.50;99.90
46416;DHT22;32620;51.704;7.822;2024-03-25T00:14:09;5.50;99.90
46416;DHT22;32620;51.704;7.822;2024-03-25T00:16:35;5.50;99.90
46416;DHT22;32620;51.704;7.822;2024-03-25T00:19:01;5.50;99.90
46416;DHT22;32620;51.704;7.822;2024-03-25T00:21:27;5.40;99.90
46416;DHT22;32620;51.704;7.822;2024-03-25T00:23:52;5.40;99.90
46416;DHT22;32620;51.704;7.822;2024-03-25T00:26:18;5.30;99.90
46416;DHT22;32620;51.704;7.822;2024-03-25T00:28:43;5.40;99.90
46416;DHT22;32620;51.704;7.822;2024-03-25T00:31:09;5.40;99.90
46416;DHT22;32620;51.704;7.822;2024-03-25T00:33:35;5.40;99.90
46416;DHT22;32620;51.704;7.822;2024-03-25T00:36:00;5.40;99.90
46416;DHT22;32620;51.704;7.822;2024-03-25T00:38:26;5.50;99.90
46416;DHT22;32620;51.704;7.822;2024-03-25T00:40:52;5.50;99.90
46416;DHT22;32620;51.704;7.822;2024-03-25T00:43:18;5.50;99.90
46416;DHT22;32620;51.704;7.822;2024-03-25T00:45:43;5.50;99.90
46416;DHT22;32620;51.704;7.822;2024-03-25T00:48:09;5.50;99.90
46416;DHT22;32620;51.704;7.822;2024-03-25T00:50:35;5.50;99.90
46416;DHT22;32620;51.704;7.822;2024-03-25T00:53:00;5.50;99.90
46416;DHT22;32620;51.704;7.822;2024-03-25T00:55:26;5.60;99.90
46416;DHT22;32620;51.704;7.822;2024-03-25T00:57:51;5.50;99.90
46416;DHT22;32620;51.704;7.822;2024-03-25T01:00:17;5.50;99.90
46416;DHT22;32620;51.704;7.822;2024-03-25T01:02:43;5.50;99.90
46416;DHT22;32620;51.704;7.822;2024-03-25T01:05:09;5.60;99.90
46416;DHT22;32620;51.704;7.822;2024-03-25T01:07:35;5.60;99.90
46416;DHT22;32620;51.704;7.822;2024-03-25T01:10:01;5.60;99.90
46416;DHT22;32620;51.704;7.822;2024-03-25T01:12:26;5.60;99.90
46416;DHT22;32620;51.704;7.822;2024-03-25T01:14:52;5.50;99.90
46416;DHT22;32620;51.704;7.822;2024-03-25T01:17:18;5.60;99.90
46416;DHT22;32620;51.704;7.822;2024-03-25T01:19:44;5.60;99.90
46416;DHT22;32620;51.704;7.822;2024-03-25T01:22:10;5.50;99.90
46416;DHT22;32620;51.704;7.822;2024-03-25T01:24:35;5.50;99.90
46416;DHT22;32620;51.704;7.822;2024-03-25T01:27:01;5.50;99.90
46416;DHT22;32620;51.704;7.822;2024-03-25T01:29:26;5.50;99.90
46416;DHT22;32620;51.704;7.822;2024-03-25T01:31:52;5.50;99.90
46416;DHT22;32620;51.704;7.822;2024-03-25T01:34:18;5.50;99.90
46416;DHT22;32620;51.704;7.822;2024-03-25T01:36:43;5.50;99.90
46416;DHT22;32620;51.704;7.822;2024-03-25T01:39:09;5.50;99.90
46416;DHT22;32620;51.704;7.822;2024-03-25T01:41:35;5.40;99.90
46416;DHT22;32620;51.704;7.822;2024-03-25T01:44:00;5.40;99.90
46416;DHT22;32620;51.704;7.822;2024-03-25T01:46:27;5.30;99.90
46416;DHT22;32620;51.704;7.822;2024-03-25T01:48:53;5.20;99.90
46416;DHT22;32620;51.704;7.822;2024-03-25T01:51:21;5.20;99.90
46416;DHT22;32620;51.704;7.822;2024-03-25T01:53:48;5.10;99.90
46416;DHT22;32620;51.704;7.822;2024-03-25T01:56:15;5.00;99.90
46416;DHT22;32620;51.704;7.822;2024-03-25T01:58:42;5.00;99.90
46416;DHT22;32620;51.704;7.822;2024-03-25T02:01:09;5.00;99.90
46416;DHT22;32620;51.704;7.822;2024-03-25T02:03:39;5.00;99.90
46416;DHT22;32620;51.704;7.822;2024-03-25T02:06:08;5.10;99.90
46416;DHT22;32620;51.704;7.822;2024-03-25T02:08:35;5.10;99.90
46416;DHT22;32620;51.704;7.822;2024-03-25T02:11:01;5.00;99.90
46416;DHT22;32620;51.704;7.822;2024-03-25T02:13:27;5.00;99.90
46416;DHT22;32620;51.704;7.822;2024-03-25T02:15:53;5.00;99.90
46416;DHT22;32620;51.704;7.822;2024-03-25T02:18:20;5.00;99.90
46416;DHT22;32620;51.704;7.822;2024-03-25T02:20:46;4.90;99.90
46416;DHT22;32620;51.704;7.822;2024-03-25T02:23:12;4.90;99.90
46416;DHT22;32620;51.704;7.822;2024-03-25T02:25:38;4.80;99.90
46416;DHT22;32620;51.704;7.822;2024-03-25T02:28:04;4.80;99.90
46416;DHT22;32620;51.704;7.822;2024-03-25T02:30:30;4.70;99.90
46416;DHT22;32620;51.704;7.822;2024-03-25T02:32:55;4.60;99.90
46416;DHT22;32620;51.704;7.822;2024-03-25T02:35:22;4.60;99.90
46416;DHT22;32620;51.704;7.822;2024-03-25T02:37:50;4.70;99.90
46416;DHT22;32620;51.704;7.822;2024-03-25T02:40:17;4.60;99.90
46416;DHT22;32620;51.704;7.822;2024-03-25T02:42:42;4.60;99.90
46416;DHT22;32620;51.704;7.822;2024-03-25T02:45:08;4.60;99.90
46416;DHT22;32620;51.704;7.822;2024-03-25T02:47:34;4.60;99.90
46416;DHT22;32620;51.704;7.822;2024-03-25T02:50:00;4.60;99.90
46416;DHT22;32620;51.704;7.822;2024-03-25T02:52:25;4.60;99.90
46416;DHT22;32620;51.704;7.822;2024-03-25T02:54:51;4.60;99.90
46416;DHT22;32620;51.704;7.822;2024-03-25T02:57:17;4.70;99.90
46416;DHT22;32620;51.704;7.822;2024-03-25T02:59:42;4.70;99.90
46416;DHT22;32620;51.704;7.822;2024-03-25T03:02:08;4.80;99.90
46416;DHT22;32620;51.704;7.822;2024-03-25T03:04:33;4.80;99.90
46416;DHT22;32620;51.704;7.822;2024-03-25T03:06:59;4.80;99.90
46416;DHT22;32620;51.704;7.822;2024-03-25T03:09:24;4.80;99.90
46416;DHT22;32620;51.704;7.822;2024-03-25T03:11:50;4.80;99.90
46416;DHT22;32620;51.704;7.822;2024-03-25T03:14:15;4.80;99.90
46416;DHT22;32620;51.704;7.822;2024-03-25T03:16:41;4.80;99.90
46416;DHT22;32620;51.704;7.822;2024-03-25T03:19:07;4.80;99.90
46416;DHT22;32620;51.704;7.822;2024-03-25T03:21:32;4.90;99.90
46416;DHT22;32620;51.704;7.822;2024-03-25T03:23:58;4.80;99.90
46416;DHT22;32620;51.704;7.822;2024-03-25T03:26:23;4.80;99.90
46416;DHT22;32620;51.704;7.822;2024-03-25T03:28:53;4.80;99.90
46416;DHT22;32620;51.704;7.822;2024-03-25T03:31:19;4.80;99.90
46416;DHT22;32620;51.704;7.822;2024-03-25T03:33:47;4.80;99.90
46416;DHT22;32620;51.704;7.822;2024-03-25T03:36:15;4.80;99.90
46416;DHT22;32620;51.704;7.822;2024-03-25T03:38:40;4.80;99.90
46416;DHT22;32620;51.704;7.822;2024-03-25T03:41:06;4.80;99.90
46416;DHT22;32620;51.704;7.822;2024-03-25T03:43:32;4.80;99.90
46416;DHT22;32620;51.704;7.822;2024-03-25T03:45:57;4.80;99.90
46416;DHT22;32620;51.704;7.822;2024-03-25T03:48:23;4.80;99.90
46416;DHT22;32620;51.704;7.822;2024-03-25T03:50:48;4.80;99.90
46416;DHT22;32620;51.704;7.822;2024-03-25T03:53:14;4.80;99.90
46416;DHT22;32620;51.704;7.822;2024-03-25T03:55:39;4.80;99.90
46416;DHT22;32620;51.704;7.822;2024-03-25T03:58:05;4.80;99.90
46416;DHT22;32620;51.704;7.822;2024-03-25T04:00:34;4.80;99.90
46416;DHT22;32620;51.704;7.822;2024-03-25T04:03:00;4.80;99.90
46416;DHT22;32620;51.704;7.822;2024-03-25T04:05:29;4.80;99.90
46416;DHT22;32620;51.704;7.822;2024-03-25T04:07:55;4.80;99.90
46416;DHT22;32620;51.704;7.822;2024-03-25T04:10:21;4.80;99.90
46416;DHT22;32620;51.704;7.822;2024-03-25T04:12:47;4.70;99.90
46416;DHT22;32620;51.704;7.822;2024-03-25T04:15:12;4.70;99.90
46416;DHT22;32620;51.704;7.822;2024-03-25T04:17:43;4.80;99.90
46416;DHT22;32620;51.704;7.822;2024-03-25T04:20:11;4.80;99.90
46416;DHT22;32620;51.704;7.822;2024-03-25T04:22:38;4.80;99.90
46416;DHT22;32620;51.704;7.822;2024-03-25T04:25:06;4.80;99.90
46416;DHT22;32620;51.704;7.822;2024-03-25T04:27:31;4.80;99.90
46416;DHT22;32620;51.704;7.822;2024-03-25T04:29:57;4.80;99.90
46416;DHT22;32620;51.704;7.822;2024-03-25T04:32:22;4.80;99.90
46416;DHT22;32620;51.704;7.822;2024-03-25T04:34:48;4.80;99.90
46416;DHT22;32620;51.704;7.822;2024-03-25T04:37:13;4.80;99.90
46416;DHT22;32620;51.704;7.822;2024-03-25T04:39:40;4.80;99.90
46416;DHT22;32620;51.704;7.822;2024-03-25T04:42:06;4.80;99.90
46416;DHT22;32620;51.704;7.822;2024-03-25T04:44:31;4.90;99.90
46416;DHT22;32620;51.704;7.822;2024-03-25T04:46:57;4.80;99.90
46416;DHT22;32620;51.704;7.822;2024-03-25T04:49:22;4.90;99.90
46416;DHT22;32620;51.704;7.822;2024-03-25T04:51:48;4.90;99.90
46416;DHT22;32620;51.704;7.822;2024-03-25T04:54:17;4.90;99.90
46416;DHT22;32620;51.704;7.822;2024-03-25T04:56:42;4.80;99.90
46416;DHT22;32620;51.704;7.822;2024-03-25T04:59:09;4.90;99.90
46416;DHT22;32620;51.704;7.822;2024-03-25T05:01:35;4.90;99.90
46416;DHT22;32620;51.704;7.822;2024-03-25T05:04:02;4.90;99.90
46416;DHT22;32620;51.704;7.822;2024-03-25T05:06:27;4.90;99.90
46416;DHT22;32620;51.704;7.822;2024-03-25T05:08:53;4.90;99.90
46416;DHT22;32620;51.704;7.822;2024-03-25T05:11:18;4.80;99.90
46416;DHT22;32620;51.704;7.822;2024-03-25T05:13:44;4.80;99.90
46416;DHT22;32620;51.704;7.822;2024-03-25T05:16:09;4.80;99.90
46416;DHT22;32620;51.704;7.822;2024-03-25T05:18:35;4.80;99.90
46416;DHT22;32620;51.704;7.822;2024-03-25T05:21:00;4.80;99.90
46416;DHT22;32620;51.704;7.822;2024-03-25T05:23:26;4.70;99.90
46416;DHT22;32620;51.704;7.822;2024-03-25T05:25:51;4.80;99.90
46416;DHT22;32620;51.704;7.822;2024-03-25T05:28:17;4.70;99.90
46416;DHT22;32620;51.704;7.822;2024-03-25T05:30:42;4.70;99.90
46416;DHT22;32620;51.704;7.822;2024-03-25T05:33:08;4.70;99.90
46416;DHT22;32620;51.704;7.822;2024-03-25T05:35:33;4.70;99.90
46416;DHT22;32620;51.704;7.822;2024-03-25T05:38:02;4.70;99.90
46416;DHT22;32620;51.704;7.822;2024-03-25T05:40:28;4.70;99.90
46416;DHT22;32620;51.704;7.822;2024-03-25T05:42:54;4.70;99.90
46416;DHT22;32620;51.704;7.822;2024-03-25T05:45:20;4.70;99.90
46416;DHT22;32620;51.704;7.822;2024-03-25T05:47:45;4.80;99.90
46416;DHT22;32620;51.704;7.822;2024-03-25T05:50:11;4.70;99.90
46416;DHT22;32620;51.704;7.822;2024-03-25T05:52:36;4.80;99.90
46416;DHT22;32620;51.704;7.822;2024-03-25T05:55:02;4.80;99.90
46416;DHT22;32620;51.704;7.822;2024-03-25T05:57:28;4.80;99.90
46416;DHT22;32620;51.704;7.822;2024-03-25T05:59:53;4.80;99.90
46416;DHT22;32620;51.704;7.822;2024-03-25T06:02:19;4.80;99.90
46416;DHT22;32620;51.704;7.822;2024-03-25T06:04:44;4.80;99.90
46416;DHT22;32620;51.704;7.822;2024-03-25T06:07:10;4.90;99.90
46416;DHT22;32620;51.704;7.822;2024-03-25T06:09:35;4.90;99.90
46416;DHT22;32620;51.704;7.822;2024-03-25T06:12:01;4.90;99.90
46416;DHT22;32620;51.704;7.822;2024-03-25T06:14:26;4.90;99.90
46416;DHT22;32620;51.704;7.822;2024-03-25T06:16:52;4.90;99.90
46416;DHT22;32620;51.704;7.822;2024-03-25T06:19:18;4.90;99.90
46416;DHT22;32620;51.704;7.822;2024-03-25T06:21:43;5.00;99.90
46416;DHT22;32620;51.704;7.822;2024-03-25T06:24:10;5.00;99.90
46416;DHT22;32620;51.704;7.822;2024-03-25T06:26:36;5.10;99.90
46416;DHT22;32620;51.704;7.822;2024-03-25T06:29:01;5.10;99.90
46416;DHT22;32620;51.704;7.822;2024-03-25T06:31:28;5.10;99.90
46416;DHT22;32620;51.704;7.822;2024-03-25T06:34:14;5.10;99.90
46416;DHT22;32620;51.704;7.822;2024-03-25T06:36:43;5.10;99.90
46416;DHT22;32620;51.704;7.822;2024-03-25T06:39:09;5.20;99.90
46416;DHT22;32620;51.704;7.822;2024-03-25T06:41:35;5.20;99.90
46416;DHT22;32620;51.704;7.822;2024-03-25T06:44:00;5.30;99.90
46416;DHT22;32620;51.704;7.822;2024-03-25T06:46:26;5.40;99.90
46416;DHT22;32620;51.704;7.822;2024-03-25T06:48:51;5.40;99.90
46416;DHT22;32620;51.704;7.822;2024-03-25T06:51:18;5.40;99.90
46416;DHT22;32620;51.704;7.822;2024-03-25T06:53:43;5.60;99.90
46416;DHT22;32620;51.704;7.822;2024-03-25T06:56:09;5.60;99.90
46416;DHT22;32620;51.704;7.822;2024-03-25T06:58:35;5.80;99.90
46416;DHT22;32620;51.704;7.822;2024-03-25T07:01:05;6.00;99.90
46416;DHT22;32620;51.704;7.822;2024-03-25T07:03:32;6.10;99.90
46416;DHT22;32620;51.704;7.822;2024-03-25T07:05:58;6.20;99.90
46416;DHT22;32620;51.704;7.822;2024-03-25T07:08:25;6.40;99.90
46416;DHT22;32620;51.704;7.822;2024-03-25T07:10:51;6.70;99.90
46416;DHT22;32620;51.704;7.822;2024-03-25T07:13:18;6.90;99.90
46416;DHT22;32620;51.704;7.822;2024-03-25T07:15:43;7.10;99.90
46416;DHT22;32620;51.704;7.822;2024-03-25T07:18:09;7.60;99.90
46416;DHT22;32620;51.704;7.822;2024-03-25T07:20:36;7.40;99.90
46416;DHT22;32620;51.704;7.822;2024-03-25T07:23:03;7.50;99.90
46416;DHT22;32620;51.704;7.822;2024-03-25T07:25:28;8.60;90.10
46416;DHT22;32620;51.704;7.822;2024-03-25T07:27:55;8.50;41.50
46416;DHT22;32620;51.704;7.822;2024-03-25T07:30:21;8.20;54.10
46416;DHT22;32620;51.704;7.822;2024-03-25T07:32:50;8.00;72.60
46416;DHT22;32620;51.704;7.822;2024-03-25T07:35:15;7.70;82.70
46416;DHT22;32620;51.704;7.822;2024-03-25T07:37:43;7.60;97.30
46416;DHT22;32620;51.704;7.822;2024-03-25T07:40:09;7.50;96.50
46416;DHT22;32620;51.704;7.822;2024-03-25T07:42:35;7.30;94.00
46416;DHT22;32620;51.704;7.822;2024-03-25T07:45:01;7.10;97.70
46416;DHT22;32620;51.704;7.822;2024-03-25T07:47:27;7.10;94.80
46416;DHT22;32620;51.704;7.822;2024-03-25T07:49:53;7.10;98.90
46416;DHT22;32620;51.704;7.822;2024-03-25T07:52:18;7.10;99.90
46416;DHT22;32620;51.704;7.822;2024-03-25T07:54:44;7.10;93.60
46416;DHT22;32620;51.704;7.822;2024-03-25T07:57:09;7.20;90.10
46416;DHT22;32620;51.704;7.822;2024-03-25T07:59:35;7.30;90.90
46416;DHT22;32620;51.704;7.822;2024-03-25T08:02:01;7.40;92.70
46416;DHT22;32620;51.704;7.822;2024-03-25T08:04:26;7.50;76.10
46416;DHT22;32620;51.704;7.822;2024-03-25T08:06:52;7.40;68.30
46416;DHT22;32620;51.704;7.822;2024-03-25T08:09:17;7.50;58.40
46416;DHT22;32620;51.704;7.822;2024-03-25T08:11:43;7.70;70.50
46416;DHT22;32620;51.704;7.822;2024-03-25T08:14:09;7.70;66.60
46416;DHT22;32620;51.704;7.822;2024-03-25T08:16:35;7.90;67.90
46416;DHT22;32620;51.704;7.822;2024-03-25T08:19:01;8.20;42.60
46416;DHT22;32620;51.704;7.822;2024-03-25T08:21:26;8.20;46.20
46416;DHT22;32620;51.704;7.822;2024-03-25T08:23:52;8.60;21.00
46416;DHT22;32620;51.704;7.822;2024-03-25T08:26:17;8.70;1.00
46416;DHT22;32620;51.704;7.822;2024-03-25T08:28:43;8.70;4.90
46416;DHT22;32620;51.704;7.822;2024-03-25T08:31:09;8.80;1.00
46416;DHT22;32620;51.704;7.822;2024-03-25T08:33:34;9.00;1.00
46416;DHT22;32620;51.704;7.822;2024-03-25T08:36:00;9.30;1.00
46416;DHT22;32620;51.704;7.822;2024-03-25T08:38:25;9.80;1.00
46416;DHT22;32620;51.704;7.822;2024-03-25T08:40:51;9.80;1.00
46416;DHT22;32620;51.704;7.822;2024-03-25T08:43:17;10.10;1.00
46416;DHT22;32620;51.704;7.822;2024-03-25T08:45:44;10.50;1.00
46416;DHT22;32620;51.704;7.822;2024-03-25T08:48:09;11.00;53.90
46416;DHT22;32620;51.704;7.822;2024-03-25T08:50:35;10.80;99.90
46416;DHT22;32620;51.704;7.822;2024-03-25T08:53:01;10.90;99.90
46416;DHT22;32620;51.704;7.822;2024-03-25T08:55:27;11.30;15.90
46416;DHT22;32620;51.704;7.822;2024-03-25T08:57:53;11.60;99.90
46416;DHT22;32620;51.704;7.822;2024-03-25T09:00:18;11.70;1.00
46416;DHT22;32620;51.704;7.822;2024-03-25T09:02:44;11.80;1.00
46416;DHT22;32620;51.704;7.822;2024-03-25T09:05:09;11.10;99.90
46416;DHT22;32620;51.704;7.822;2024-03-25T09:07:36;11.00;1.00
46416;DHT22;32620;51.704;7.822;2024-03-25T09:10:02;11.40;99.90
46416;DHT22;32620;51.704;7.822;2024-03-25T09:12:47;10.90;1.00
46416;DHT22;32620;51.704;7.822;2024-03-25T09:15:13;10.80;99.90
46416;DHT22;32620;51.704;7.822;2024-03-25T09:17:40;10.90;27.90
46416;DHT22;32620;51.704;7.822;2024-03-25T09:20:06;10.70;19.90
46416;DHT22;32620;51.704;7.822;2024-03-25T09:22:42;11.50;99.90
46416;DHT22;32620;51.704;7.822;2024-03-25T09:25:08;12.50;99.90
46416;DHT22;32620;51.704;7.822;2024-03-25T09:29:59;12.70;1.00
46416;DHT22;32620;51.704;7.822;2024-03-25T09:32:25;12.00;2.70
46416;DHT22;32620;51.704;7.822;2024-03-25T09:34:52;12.40;99.90
46416;DHT22;32620;51.704;7.822;2024-03-25T09:37:17;12.50;1.00
46416;DHT22;32620;51.704;7.822;2024-03-25T09:39:43;12.80;89.50
46416;DHT22;32620;51.704;7.822;2024-03-25T09:42:14;12.30;99.90
46416;DHT22;32620;51.704;7.822;2024-03-25T09:44:39;11.70;1.00
46416;DHT22;32620;51.704;7.822;2024-03-25T09:47:05;10.80;99.90
46416;DHT22;32620;51.704;7.822;2024-03-25T09:49:32;11.60;99.90
46416;DHT22;32620;51.704;7.822;2024-03-25T09:51:59;12.10;1.00
46416;DHT22;32620;51.704;7.822;2024-03-25T09:54:25;11.50;1.00
46416;DHT22;32620;51.704;7.822;2024-03-25T09:56:50;11.60;99.90
46416;DHT22;32620;51.704;7.822;2024-03-25T09:59:16;12.30;99.90
46416;DHT22;32620;51.704;7.822;2024-03-25T10:01:42;12.50;99.90
46416;DHT22;32620;51.704;7.822;2024-03-25T10:04:08;12.20;1.00
46416;DHT22;32620;51.704;7.822;2024-03-25T10:06:35;12.00;73.50
46416;DHT22;32620;51.704;7.822;2024-03-25T10:09:04;11.90;99.90
46416;DHT22;32620;51.704;7.822;2024-03-25T10:11:31;11.90;99.90
46416;DHT22;32620;51.704;7.822;2024-03-25T10:14:01;11.60;39.00
46416;DHT22;32620;51.704;7.822;2024-03-25T10:16:27;12.20;1.00
46416;DHT22;32620;51.704;7.822;2024-03-25T10:18:52;13.00;99.90
46416;DHT22;32620;51.704;7.822;2024-03-25T10:21:20;14.20;99.90
46416;DHT22;32620;51.704;7.822;2024-03-25T10:23:47;14.50;99.90
46416;DHT22;32620;51.704;7.822;2024-03-25T10:26:30;13.40;99.90
46416;DHT22;32620;51.704;7.822;2024-03-25T10:28:59;14.30;36.20
46416;DHT22;32620;51.704;7.822;2024-03-25T10:31:25;13.50;99.90
46416;DHT22;32620;51.704;7.822;2024-03-25T10:33:51;12.30;99.90
46416;DHT22;32620;51.704;7.822;2024-03-25T10:36:17;12.10;99.90
46416;DHT22;32620;51.704;7.822;2024-03-25T10:38:44;12.30;99.90
46416;DHT22;32620;51.704;7.822;2024-03-25T10:41:13;12.10;1.00
46416;DHT22;32620;51.704;7.822;2024-03-25T10:43:44;12.70;99.90
46416;DHT22;32620;51.704;7.822;2024-03-25T10:46:11;13.00;99.90
46416;DHT22;32620;51.704;7.822;2024-03-25T10:48:39;13.40;99.90
46416;DHT22;32620;51.704;7.822;2024-03-25T10:51:06;13.60;99.90
46416;DHT22;32620;51.704;7.822;2024-03-25T10:53:35;13.10;99.90
46416;DHT22;32620;51.704;7.822;2024-03-25T10:56:02;13.10;99.90
46416;DHT22;32620;51.704;7.822;2024-03-25T10:58:30;13.40;99.90
46416;DHT22;32620;51.704;7.822;2024-03-25T11:00:57;13.20;1.00
46416;DHT22;32620;51.704;7.822;2024-03-25T11:03:23;13.00;99.90
46416;DHT22;32620;51.704;7.822;2024-03-25T11:05:49;13.30;99.90
46416;DHT22;32620;51.704;7.822;2024-03-25T11:08:16;13.50;99.90
46416;DHT22;32620;51.704;7.822;2024-03-25T11:10:44;13.50;99.90
46416;DHT22;32620;51.704;7.822;2024-03-25T11:13:11;13.20;99.90
46416;DHT22;32620;51.704;7.822;2024-03-25T11:15:41;13.00;99.90
46416;DHT22;32620;51.704;7.822;2024-03-25T11:20:41;12.70;99.90
46416;DHT22;32620;51.704;7.822;2024-03-25T11:23:09;13.20;99.90
46416;DHT22;32620;51.704;7.822;2024-03-25T11:25:36;13.00;99.90
46416;DHT22;32620;51.704;7.822;2024-03-25T11:28:02;13.30;99.90
46416;DHT22;32620;51.704;7.822;2024-03-25T11:30:28;13.30;99.90
46416;DHT22;32620;51.704;7.822;2024-03-25T11:32:55;12.70;99.90
46416;DHT22;32620;51.704;7.822;2024-03-25T11:35:21;13.20;99.90
46416;DHT22;32620;51.704;7.822;2024-03-25T11:37:47;13.20;38.80
46416;DHT22;32620;51.704;7.822;2024-03-25T11:40:14;13.10;47.90
46416;DHT22;32620;51.704;7.822;2024-03-25T11:42:40;13.20;34.00
46416;DHT22;32620;51.704;7.822;2024-03-25T11:45:07;12.90;84.40
46416;DHT22;32620;51.704;7.822;2024-03-25T11:47:40;13.20;89.60
46416;DHT22;32620;51.704;7.822;2024-03-25T11:50:11;13.20;99.90
46416;DHT22;32620;51.704;7.822;2024-03-25T11:52:36;13.50;15.40
46416;DHT22;32620;51.704;7.822;2024-03-25T11:55:02;13.20;24.30
46416;DHT22;32620;51.704;7.822;2024-03-25T11:57:28;13.30;48.00
46416;DHT22;32620;51.704;7.822;2024-03-25T11:59:54;13.50;1.00
46416;DHT22;32620;51.704;7.822;2024-03-25T12:02:19;12.80;99.90
46416;DHT22;32620;51.704;7.822;2024-03-25T12:04:47;13.00;99.90
46416;DHT22;32620;51.704;7.822;2024-03-25T12:07:13;12.50;99.90
46416;DHT22;32620;51.704;7.822;2024-03-25T12:09:39;13.20;99.90
46416;DHT22;32620;51.704;7.822;2024-03-25T12:12:26;13.40;99.90
46416;DHT22;32620;51.704;7.822;2024-03-25T12:14:52;13.40;1.00
46416;DHT22;32620;51.704;7.822;2024-03-25T12:17:18;13.00;5.00
46416;DHT22;32620;51.704;7.822;2024-03-25T12:20:16;12.30;77.40
46416;DHT22;32620;51.704;7.822;2024-03-25T12:22:31;12.20;3.40
46416;DHT22;32620;51.704;7.822;2024-03-25T12:24:59;12.10;99.90
46416;DHT22;32620;51.704;7.822;2024-03-25T12:27:25;11.70;99.90
46416;DHT22;32620;51.704;7.822;2024-03-25T12:30:02;11.50;99.90
46416;DHT22;32620;51.704;7.822;2024-03-25T12:32:40;11.40;99.90
46416;DHT22;32620;51.704;7.822;2024-03-25T12:35:09;11.50;99.90
46416;DHT22;32620;51.704;7.822;2024-03-25T12:37:37;11.90;99.90
46416;DHT22;32620;51.704;7.822;2024-03-25T12:40:03;12.20;99.90
46416;DHT22;32620;51.704;7.822;2024-03-25T12:42:31;12.20;99.90
46416;DHT22;32620;51.704;7.822;2024-03-25T12:44:56;11.90;99.90
46416;DHT22;32620;51.704;7.822;2024-03-25T12:47:22;12.10;99.90
46416;DHT22;32620;51.704;7.822;2024-03-25T12:49:47;12.40;99.90
46416;DHT22;32620;51.704;7.822;2024-03-25T12:52:13;12.60;56.10
46416;DHT22;32620;51.704;7.822;2024-03-25T12:54:38;12.80;93.80
46416;DHT22;32620;51.704;7.822;2024-03-25T12:57:05;12.90;12.00
46416;DHT22;32620;51.704;7.822;2024-03-25T12:59:31;13.10;1.00
46416;DHT22;32620;51.704;7.822;2024-03-25T13:01:56;13.40;1.00
46416;DHT22;32620;51.704;7.822;2024-03-25T13:04:22;13.40;1.00
46416;DHT22;32620;51.704;7.822;2024-03-25T13:06:47;13.60;1.00
46416;DHT22;32620;51.704;7.822;2024-03-25T13:09:13;13.90;1.00
46416;DHT22;32620;51.704;7.822;2024-03-25T13:11:38;13.60;1.00
46416;DHT22;32620;51.704;7.822;2024-03-25T13:14:04;13.70;1.00
46416;DHT22;32620;51.704;7.822;2024-03-25T13:16:33;13.80;1.00
46416;DHT22;32620;51.704;7.822;2024-03-25T13:18:58;13.70;1.00
46416;DHT22;32620;51.704;7.822;2024-03-25T13:21:25;13.50;1.00
46416;DHT22;32620;51.704;7.822;2024-03-25T13:23:51;13.50;1.00
46416;DHT22;32620;51.704;7.822;2024-03-25T13:26:17;13.40;1.00
46416;DHT22;32620;51.704;7.822;2024-03-25T13:28:42;13.20;1.00
46416;DHT22;32620;51.704;7.822;2024-03-25T13:31:08;13.00;1.00
46416;DHT22;32620;51.704;7.822;2024-03-25T13:33:34;13.30;1.00
46416;DHT22;32620;51.704;7.822;2024-03-25T13:35:59;13.10;1.00
46416;DHT22;32620;51.704;7.822;2024-03-25T13:38:25;13.10;1.00
46416;DHT22;32620;51.704;7.822;2024-03-25T13:40:52;12.90;1.00
46416;DHT22;32620;51.704;7.822;2024-03-25T13:43:18;12.80;1.00
46416;DHT22;32620;51.704;7.822;2024-03-25T13:45:48;12.80;1.00
46416;DHT22;32620;51.704;7.822;2024-03-25T13:48:15;12.40;1.00
46416;DHT22;32620;51.704;7.822;2024-03-25T13:50:40;12.40;1.00
46416;DHT22;32620;51.704;7.822;2024-03-25T13:53:07;12.50;1.00
46416;DHT22;32620;51.704;7.822;2024-03-25T13:55:33;12.60;25.20
46416;DHT22;32620;51.704;7.822;2024-03-25T13:57:58;12.40;41.20
46416;DHT22;32620;51.704;7.822;2024-03-25T14:00:24;12.60;53.10
46416;DHT22;32620;51.704;7.822;2024-03-25T14:02:52;12.60;14.30
46416;DHT22;32620;51.704;7.822;2024-03-25T14:05:18;12.70;13.10
46416;DHT22;32620;51.704;7.822;2024-03-25T14:07:43;12.90;1.00
46416;DHT22;32620;51.704;7.822;2024-03-25T14:10:09;12.70;1.00
46416;DHT22;32620;51.704;7.822;2024-03-25T14:12:36;12.70;1.00
46416;DHT22;32620;51.704;7.822;2024-03-25T14:15:02;12.80;1.00
46416;DHT22;32620;51.704;7.822;2024-03-25T14:17:28;12.50;1.00
46416;DHT22;32620;51.704;7.822;2024-03-25T14:19:56;12.70;1.00
46416;DHT22;32620;51.704;7.822;2024-03-25T14:22:22;12.80;1.00
46416;DHT22;32620;51.704;7.822;2024-03-25T14:24:47;12.70;1.00
46416;DHT22;32620;51.704;7.822;2024-03-25T14:27:14;12.60;1.00
46416;DHT22;32620;51.704;7.822;2024-03-25T14:29:40;12.70;1.00
46416;DHT22;32620;51.704;7.822;2024-03-25T14:32:07;12.60;1.00
46416;DHT22;32620;51.704;7.822;2024-03-25T14:34:33;12.60;1.00
46416;DHT22;32620;51.704;7.822;2024-03-25T14:36:58;12.90;1.00
46416;DHT22;32620;51.704;7.822;2024-03-25T14:39:27;13.10;1.00
46416;DHT22;32620;51.704;7.822;2024-03-25T14:41:53;13.00;1.00
46416;DHT22;32620;51.704;7.822;2024-03-25T14:44:19;12.80;1.00
46416;DHT22;32620;51.704;7.822;2024-03-25T14:46:44;12.60;1.00
46416;DHT22;32620;51.704;7.822;2024-03-25T14:49:10;12.50;1.00
46416;DHT22;32620;51.704;7.822;2024-03-25T14:51:35;12.30;1.00
46416;DHT22;32620;51.704;7.822;2024-03-25T14:54:01;12.10;1.00
46416;DHT22;32620;51.704;7.822;2024-03-25T14:56:28;11.90;1.00
46416;DHT22;32620;51.704;7.822;2024-03-25T14:58:54;11.70;6.20
46416;DHT22;32620;51.704;7.822;2024-03-25T15:01:20;11.70;35.20
46416;DHT22;32620;51.704;7.822;2024-03-25T15:03:45;11.40;91.80
46416;DHT22;32620;51.704;7.822;2024-03-25T15:06:11;11.30;99.90
46416;DHT22;32620;51.704;7.822;2024-03-25T15:08:36;11.30;99.90
46416;DHT22;32620;51.704;7.822;2024-03-25T15:11:02;11.20;99.90
46416;DHT22;32620;51.704;7.822;2024-03-25T15:13:30;11.20;99.90
46416;DHT22;32620;51.704;7.822;2024-03-25T15:15:55;11.30;99.90
46416;DHT22;32620;51.704;7.822;2024-03-25T15:18:21;11.60;99.90
46416;DHT22;32620;51.704;7.822;2024-03-25T15:20:46;11.80;99.90
46416;DHT22;32620;51.704;7.822;2024-03-25T15:23:12;11.90;50.70
46416;DHT22;32620;51.704;7.822;2024-03-25T15:25:37;11.90;1.00
46416;DHT22;32620;51.704;7.822;2024-03-25T15:28:03;11.80;1.00
46416;DHT22;32620;51.704;7.822;2024-03-25T15:30:29;11.80;1.00
46416;DHT22;32620;51.704;7.822;2024-03-25T15:32:54;11.80;1.00
46416;DHT22;32620;51.704;7.822;2024-03-25T15:35:20;11.90;1.00
46416;DHT22;32620;51.704;7.822;2024-03-25T15:37:46;11.90;1.00
46416;DHT22;32620;51.704;7.822;2024-03-25T15:40:12;11.80;1.00
46416;DHT22;32620;51.704;7.822;2024-03-25T15:42:43;11.80;1.00